createdAt,value
2023-02-28T00:01:16.819Z,98.70
2023-02-28T00:03:43.646Z,99.10
2023-02-28T00:06:11.095Z,99.20
2023-02-28T00:08:38.662Z,99.30
2023-02-28T00:11:07.897Z,98.90
2023-02-28T00:13:43.431Z,98.90
2023-02-28T00:16:12.573Z,98.90
2023-02-28T00:18:39.847Z,99.20
2023-02-28T00:21:07.624Z,99.30
2023-02-28T00:23:35.139Z,99.10
2023-02-28T00:26:02.311Z,99.30
2023-02-28T00:28:29.548Z,99.20
2023-02-28T00:30:56.430Z,98.90
2023-02-28T00:33:23.266Z,99.10
2023-02-28T00:35:50.135Z,99.10
2023-02-28T00:38:17.396Z,99.20
2023-02-28T00:40:44.465Z,99.20
2023-02-28T00:43:11.426Z,99.00
2023-02-28T00:45:40.540Z,99.10
2023-02-28T00:48:07.427Z,99.10
2023-02-28T00:50:34.287Z,99.70
2023-02-28T00:53:01.064Z,100.00
2023-02-28T00:55:27.891Z,100.00
2023-02-28T00:57:54.677Z,99.90
2023-02-28T01:00:21.628Z,99.70
2023-02-28T01:02:48.419Z,99.80
2023-02-28T01:05:15.287Z,100.00
2023-02-28T01:07:42.180Z,99.50
2023-02-28T01:10:10.016Z,99.70
2023-02-28T01:12:37.114Z,99.80
2023-02-28T01:15:04.283Z,99.70
2023-02-28T01:17:31.095Z,100.00
2023-02-28T01:19:57.873Z,99.80
2023-02-28T01:22:24.794Z,99.90
2023-02-28T01:24:51.644Z,99.90
2023-02-28T01:27:18.474Z,99.90
2023-02-28T01:29:45.320Z,100.00
2023-02-28T01:32:12.201Z,100.00
2023-02-28T01:34:38.969Z,100.00
2023-02-28T01:37:05.842Z,100.00
2023-02-28T01:39:32.645Z,99.90
2023-02-28T01:41:59.408Z,100.00
2023-02-28T01:45:03.565Z,100.00
2023-02-28T01:47:35.220Z,99.80
2023-02-28T01:50:05.157Z,100.00
2023-02-28T01:52:33.231Z,100.00
2023-02-28T01:55:01.739Z,100.00
2023-02-28T01:57:46.786Z,100.00
2023-02-28T02:00:17.585Z,100.00
2023-02-28T02:02:48.269Z,100.00
2023-02-28T02:05:19.662Z,100.00
2023-02-28T02:07:49.616Z,99.90
2023-02-28T02:10:22.907Z,99.90
2023-02-28T02:13:02.121Z,100.00
2023-02-28T02:15:57.999Z,100.00
2023-02-28T02:18:33.657Z,100.00
2023-02-28T02:21:11.390Z,100.00
2023-02-28T02:23:59.575Z,100.00
2023-02-28T02:26:57.030Z,100.00
2023-02-28T02:29:32.022Z,100.00
2023-02-28T02:32:17.546Z,100.00
2023-02-28T02:38:40.212Z,100.00
2023-02-28T02:41:25.856Z,100.00
2023-02-28T02:43:54.633Z,100.00
2023-02-28T02:46:33.337Z,100.00
2023-02-28T02:49:04.084Z,100.00
2023-02-28T02:51:33.685Z,100.00
2023-02-28T02:54:09.794Z,100.00
2023-02-28T02:56:41.216Z,100.00
2023-02-28T02:59:11.770Z,100.00
2023-02-28T03:01:39.586Z,100.00
2023-02-28T03:04:15.181Z,100.00
2023-02-28T03:06:41.971Z,100.00
2023-02-28T03:09:08.766Z,100.00
2023-02-28T03:11:37.868Z,100.00
2023-02-28T03:14:15.151Z,100.00
2023-02-28T03:17:00.027Z,100.00
2023-02-28T03:19:34.817Z,100.00
2023-02-28T03:22:10.643Z,100.00
2023-02-28T03:25:17.880Z,100.00
2023-02-28T03:28:02.716Z,100.00
2023-02-28T03:30:48.432Z,100.00
2023-02-28T03:33:42.017Z,100.00
2023-02-28T03:36:14.398Z,100.00
2023-02-28T03:39:05.125Z,100.00
2023-02-28T03:41:37.786Z,100.00
2023-02-28T03:44:11.609Z,100.00
2023-02-28T03:46:41.901Z,100.00
2023-02-28T03:49:23.502Z,100.00
2023-02-28T03:51:53.174Z,100.00
2023-02-28T03:54:28.324Z,100.00
2023-02-28T03:57:05.497Z,100.00
2023-02-28T03:59:38.794Z,100.00
2023-02-28T04:02:05.900Z,100.00
2023-02-28T04:04:32.820Z,100.00
2023-02-28T04:07:07.213Z,100.00
2023-02-28T04:09:34.084Z,100.00
2023-02-28T04:12:01.219Z,100.00
2023-02-28T04:14:28.062Z,100.00
2023-02-28T04:16:54.997Z,100.00
2023-02-28T04:19:21.742Z,100.00
2023-02-28T04:21:51.650Z,100.00
2023-02-28T04:24:21.979Z,100.00
2023-02-28T04:26:51.544Z,100.00
2023-02-28T04:29:27.489Z,100.00
2023-02-28T04:31:55.845Z,100.00
2023-02-28T04:34:24.520Z,100.00
2023-02-28T04:37:02.722Z,100.00
2023-02-28T04:39:38.557Z,100.00
2023-02-28T04:42:05.609Z,100.00
2023-02-28T04:44:32.687Z,100.00
2023-02-28T04:46:59.501Z,100.00
2023-02-28T04:49:26.887Z,100.00
2023-02-28T04:51:54.103Z,100.00
2023-02-28T04:54:21.168Z,100.00
2023-02-28T04:56:50.706Z,100.00
2023-02-28T04:59:17.714Z,100.00
2023-02-28T05:01:48.659Z,100.00
2023-02-28T05:04:15.927Z,100.00
2023-02-28T05:06:42.726Z,100.00
2023-02-28T05:09:09.639Z,100.00
2023-02-28T05:11:36.935Z,100.00
2023-02-28T05:14:05.589Z,100.00
2023-02-28T05:16:33.223Z,100.00
2023-02-28T05:19:00.508Z,100.00
2023-02-28T05:21:32.501Z,100.00
2023-02-28T05:24:01.845Z,100.00
2023-02-28T05:26:29.080Z,100.00
2023-02-28T05:28:56.516Z,100.00
2023-02-28T05:31:24.292Z,100.00
2023-02-28T05:33:52.343Z,100.00
2023-02-28T05:36:19.554Z,100.00
2023-02-28T05:38:50.223Z,100.00
2023-02-28T05:41:18.544Z,100.00
2023-02-28T05:43:45.396Z,100.00
2023-02-28T05:46:13.627Z,100.00
2023-02-28T05:48:44.215Z,100.00
2023-02-28T05:51:11.066Z,100.00
2023-02-28T05:53:38.201Z,100.00
2023-02-28T05:56:05.953Z,100.00
2023-02-28T05:58:33.370Z,100.00
2023-02-28T06:01:01.100Z,100.00
2023-02-28T06:03:28.555Z,100.00
2023-02-28T06:05:55.472Z,100.00
2023-02-28T06:08:22.422Z,100.00
2023-02-28T06:10:49.442Z,100.00
2023-02-28T06:13:16.408Z,100.00
2023-02-28T06:15:43.317Z,100.00
2023-02-28T06:18:10.105Z,100.00
2023-02-28T06:20:37.329Z,100.00
2023-02-28T06:23:04.279Z,100.00
2023-02-28T06:25:31.210Z,100.00
2023-02-28T06:27:58.075Z,100.00
2023-02-28T06:30:27.666Z,100.00
2023-02-28T06:32:55.517Z,100.00
2023-02-28T06:35:22.676Z,100.00
2023-02-28T06:37:49.662Z,100.00
2023-02-28T06:40:16.743Z,100.00
2023-02-28T06:42:43.820Z,100.00
2023-02-28T06:45:12.348Z,100.00
2023-02-28T06:47:40.838Z,100.00
2023-02-28T06:50:10.110Z,100.00
2023-02-28T06:52:39.712Z,100.00
2023-02-28T06:55:07.836Z,100.00
2023-02-28T06:57:35.741Z,100.00
2023-02-28T07:00:08.608Z,100.00
2023-02-28T07:02:37.102Z,100.00
2023-02-28T07:05:04.683Z,100.00
2023-02-28T07:07:31.629Z,100.00
2023-02-28T07:09:58.714Z,100.00
2023-02-28T07:12:25.664Z,100.00
2023-02-28T07:14:54.427Z,100.00
2023-02-28T07:17:21.249Z,100.00
2023-02-28T07:19:48.063Z,100.00
2023-02-28T07:22:15.967Z,99.70
2023-02-28T07:24:42.966Z,98.30
2023-02-28T07:27:09.775Z,97.30
2023-02-28T07:29:36.522Z,97.20
2023-02-28T07:32:03.366Z,97.20
2023-02-28T07:34:30.362Z,97.30
2023-02-28T07:36:57.243Z,97.70
2023-02-28T07:39:24.193Z,98.40
2023-02-28T07:41:50.987Z,98.70
2023-02-28T07:44:17.747Z,99.10
2023-02-28T07:46:44.811Z,97.90
2023-02-28T07:49:11.522Z,100.00
2023-02-28T07:51:38.386Z,98.00
2023-02-28T07:54:05.432Z,95.50
2023-02-28T07:56:32.736Z,92.40
2023-02-28T07:58:59.823Z,92.20
2023-02-28T08:01:26.732Z,92.60
2023-02-28T08:03:54.772Z,94.30
2023-02-28T08:06:24.599Z,96.10
2023-02-28T08:08:51.960Z,95.10
2023-02-28T08:14:33.740Z,93.00
2023-02-28T08:17:00.613Z,89.10
2023-02-28T08:19:27.583Z,89.10
2023-02-28T08:21:54.438Z,91.10
2023-02-28T08:24:21.275Z,91.40
2023-02-28T08:26:48.099Z,89.10
2023-02-28T08:29:14.948Z,84.90
2023-02-28T08:31:42.639Z,82.40
2023-02-28T08:34:11.802Z,74.50
2023-02-28T08:36:39.789Z,73.70
2023-02-28T08:39:08.576Z,75.40
2023-02-28T08:41:35.557Z,73.10
2023-02-28T08:44:02.531Z,72.20
2023-02-28T08:46:29.302Z,73.30
2023-02-28T08:49:00.331Z,73.10
2023-02-28T08:51:28.801Z,72.90
2023-02-28T08:53:59.001Z,74.50
2023-02-28T08:56:25.789Z,76.00
2023-02-28T08:58:52.665Z,79.00
2023-02-28T09:01:28.077Z,77.60
2023-02-28T09:06:54.741Z,79.10
2023-02-28T09:09:21.536Z,78.40
2023-02-28T09:11:48.352Z,78.30
2023-02-28T09:14:15.214Z,76.70
2023-02-28T09:16:42.167Z,75.20
2023-02-28T09:19:12.869Z,75.10
2023-02-28T09:21:39.786Z,76.80
2023-02-28T09:24:06.932Z,75.20
2023-02-28T09:26:42.660Z,75.80
2023-02-28T09:29:15.495Z,71.90
2023-02-28T09:31:42.422Z,68.40
2023-02-28T09:34:09.463Z,68.20
2023-02-28T09:36:45.144Z,65.60
2023-02-28T09:39:15.109Z,63.50
2023-02-28T09:41:51.010Z,62.00
2023-02-28T09:47:58.953Z,58.00
2023-02-28T09:50:45.386Z,56.80
2023-02-28T09:53:23.618Z,58.30
2023-02-28T09:55:55.767Z,55.30
2023-02-28T09:58:55.940Z,57.30
2023-02-28T10:01:50.714Z,55.10
2023-02-28T10:04:53.536Z,56.80
2023-02-28T10:07:46.398Z,59.40
2023-02-28T10:10:39.464Z,56.90
2023-02-28T10:13:17.566Z,51.80
2023-02-28T10:15:48.411Z,51.60
2023-02-28T10:18:22.104Z,49.60
2023-02-28T10:20:50.196Z,50.90
2023-02-28T10:23:26.496Z,51.00
2023-02-28T10:26:02.713Z,49.80
2023-02-28T10:28:31.934Z,51.40
2023-02-28T10:31:00.072Z,53.80
2023-02-28T10:33:35.253Z,53.80
2023-02-28T10:36:04.186Z,54.60
2023-02-28T10:38:36.718Z,54.10
2023-02-28T10:41:13.453Z,51.90
2023-02-28T10:43:42.287Z,53.20
2023-02-28T10:46:11.956Z,52.70
2023-02-28T10:49:06.013Z,50.10
2023-02-28T10:51:39.026Z,48.50
2023-02-28T10:54:06.921Z,49.20
2023-02-28T10:56:34.522Z,47.30
2023-02-28T10:59:04.306Z,45.10
2023-02-28T11:01:41.215Z,44.40
2023-02-28T11:04:30.467Z,42.70
2023-02-28T11:07:03.852Z,39.20
2023-02-28T11:09:39.715Z,39.70
2023-02-28T11:12:26.480Z,42.00
2023-02-28T11:15:02.809Z,41.70
2023-02-28T11:17:33.301Z,42.70
2023-02-28T11:20:04.919Z,45.10
2023-02-28T11:22:36.992Z,44.60
2023-02-28T11:25:20.205Z,42.90
2023-02-28T11:27:53.579Z,43.50
2023-02-28T11:30:36.870Z,42.60
2023-02-28T11:33:25.587Z,44.40
2023-02-28T11:35:54.228Z,44.70
2023-02-28T11:38:21.189Z,43.40
2023-02-28T11:40:58.485Z,43.30
2023-02-28T11:43:48.331Z,42.50
2023-02-28T11:46:36.825Z,39.60
2023-02-28T11:49:18.927Z,38.90
2023-02-28T11:51:45.616Z,39.20
2023-02-28T11:54:28.729Z,39.20
2023-02-28T11:57:04.336Z,39.60
2023-02-28T12:00:02.176Z,38.00
2023-02-28T12:02:45.518Z,36.80
2023-02-28T12:05:36.231Z,36.80
2023-02-28T12:08:39.952Z,36.30
2023-02-28T12:11:24.411Z,36.40
2023-02-28T12:14:29.043Z,37.70
2023-02-28T12:17:01.513Z,37.80
2023-02-28T12:19:45.342Z,37.90
2023-02-28T12:22:53.705Z,39.40
2023-02-28T12:25:41.951Z,37.90
2023-02-28T12:28:13.762Z,35.70
2023-02-28T12:31:12.583Z,37.30
2023-02-28T12:33:48.903Z,35.10
2023-02-28T12:36:22.940Z,37.00
2023-02-28T12:39:01.468Z,36.10
2023-02-28T12:41:35.589Z,39.70
2023-02-28T12:44:09.146Z,36.90
2023-02-28T12:46:42.307Z,36.20
2023-02-28T12:49:15.918Z,38.20
2023-02-28T12:51:43.176Z,35.70
2023-02-28T12:54:14.170Z,34.50
2023-02-28T13:09:58.844Z,34.40
2023-02-28T13:12:26.056Z,33.70
2023-02-28T13:15:13.294Z,32.80
2023-02-28T13:17:42.502Z,32.80
2023-02-28T13:20:19.531Z,33.10
2023-02-28T13:22:50.076Z,34.50
2023-02-28T13:25:22.628Z,33.40
2023-02-28T13:42:23.263Z,34.60
2023-02-28T13:45:05.474Z,36.20
2023-02-28T13:47:32.270Z,35.70
2023-02-28T13:50:26.889Z,35.00
2023-02-28T13:52:56.741Z,36.80
2023-02-28T13:55:57.655Z,36.60
2023-02-28T13:58:40.172Z,39.60
2023-02-28T14:01:13.136Z,39.70
2023-02-28T14:04:34.163Z,38.10
2023-02-28T14:07:01.866Z,39.20
2023-02-28T14:09:36.420Z,39.00
2023-02-28T14:12:40.580Z,40.50
2023-02-28T14:15:47.081Z,42.30
2023-02-28T14:18:28.282Z,42.70
2023-02-28T14:21:26.373Z,41.10
2023-02-28T14:24:08.001Z,43.90
2023-02-28T14:27:12.700Z,45.30
2023-02-28T14:29:51.550Z,45.50
2023-02-28T14:32:27.377Z,46.90
2023-02-28T14:35:04.017Z,46.90
2023-02-28T14:37:38.416Z,46.00
2023-02-28T14:40:06.063Z,45.70
2023-02-28T14:42:36.266Z,45.70
2023-02-28T14:45:03.727Z,48.40
2023-02-28T14:47:33.546Z,48.60
2023-02-28T14:50:02.056Z,47.80
2023-02-28T14:52:30.714Z,48.20
2023-02-28T14:55:01.675Z,49.20
2023-02-28T14:57:32.324Z,48.70
2023-02-28T15:00:19.400Z,50.00
2023-02-28T15:02:46.415Z,50.20
2023-02-28T15:05:18.923Z,50.50
2023-02-28T15:07:50.240Z,49.90
2023-02-28T15:10:24.325Z,50.50
2023-02-28T15:13:11.902Z,52.30
2023-02-28T15:16:01.296Z,51.10
2023-02-28T15:18:56.519Z,51.50
2023-02-28T15:21:26.773Z,51.30
2023-02-28T15:23:58.809Z,52.40
2023-02-28T15:26:31.481Z,52.50
2023-02-28T15:29:21.237Z,52.50
2023-02-28T15:32:02.596Z,52.50
2023-02-28T15:34:42.254Z,50.90
2023-02-28T15:37:53.247Z,52.10
2023-02-28T15:40:57.047Z,52.90
2023-02-28T15:43:32.542Z,53.60
2023-02-28T15:46:08.824Z,52.70
2023-02-28T15:48:37.897Z,52.40
2023-02-28T15:51:08.868Z,52.80
2023-02-28T15:53:58.219Z,52.20
2023-02-28T15:56:28.114Z,51.70
2023-02-28T15:59:04.035Z,54.50
2023-02-28T16:01:34.152Z,54.70
2023-02-28T16:04:07.328Z,53.90
2023-02-28T16:07:01.026Z,53.60
2023-02-28T16:09:28.480Z,54.50
2023-02-28T16:12:00.111Z,55.40
2023-02-28T16:14:28.826Z,55.70
2023-02-28T16:16:57.886Z,56.30
2023-02-28T16:19:24.959Z,56.00
2023-02-28T16:25:47.020Z,57.10
2023-02-28T16:28:20.101Z,57.20
2023-02-28T16:30:46.998Z,58.10
2023-02-28T16:33:13.934Z,58.30
2023-02-28T16:35:41.014Z,58.90
2023-02-28T16:38:07.759Z,58.00
2023-02-28T16:40:36.635Z,58.20
2023-02-28T16:43:08.179Z,57.70
2023-02-28T16:45:35.017Z,58.70
2023-02-28T16:48:02.026Z,59.40
2023-02-28T16:50:31.163Z,59.50
2023-02-28T16:52:57.918Z,59.90
2023-02-28T16:55:25.702Z,60.70
2023-02-28T16:57:55.383Z,62.10
2023-02-28T17:00:23.104Z,61.00
2023-02-28T17:02:50.165Z,62.40
2023-02-28T17:05:18.206Z,61.30
2023-02-28T17:07:45.231Z,61.80
2023-02-28T17:10:12.406Z,63.30
2023-02-28T17:12:39.236Z,63.70
2023-02-28T17:15:07.444Z,64.30
2023-02-28T17:17:34.535Z,65.70
2023-02-28T17:20:01.405Z,65.10
2023-02-28T17:22:28.350Z,65.50
2023-02-28T17:24:58.617Z,65.70
2023-02-28T17:27:26.376Z,64.90
2023-02-28T17:29:53.160Z,66.60
2023-02-28T17:32:19.992Z,66.40
2023-02-28T17:34:47.256Z,66.70
2023-02-28T17:37:14.363Z,67.80
2023-02-28T17:39:41.199Z,68.40
2023-02-28T17:42:08.966Z,69.20
2023-02-28T17:44:35.784Z,69.30
2023-02-28T17:47:02.642Z,68.40
2023-02-28T17:49:30.046Z,68.50
2023-02-28T17:51:56.858Z,69.70
2023-02-28T17:54:23.694Z,71.10
2023-02-28T17:56:50.698Z,71.10
2023-02-28T17:59:17.571Z,71.50
2023-02-28T18:01:44.984Z,71.60
2023-02-28T18:04:11.849Z,71.90
2023-02-28T18:06:48.594Z,72.50
2023-02-28T18:09:22.693Z,72.70
2023-02-28T18:11:51.134Z,73.70
2023-02-28T18:14:20.564Z,73.70
2023-02-28T18:16:48.205Z,74.10
2023-02-28T18:19:17.049Z,75.60
2023-02-28T18:21:45.748Z,76.20
2023-02-28T18:24:13.668Z,76.30
2023-02-28T18:29:50.977Z,76.00
2023-02-28T18:32:17.990Z,76.50
2023-02-28T18:34:44.938Z,76.10
2023-02-28T18:37:12.069Z,77.10
2023-02-28T18:39:39.052Z,77.30
2023-02-28T18:42:05.936Z,77.10
2023-02-28T18:44:32.721Z,77.90
2023-02-28T18:46:59.669Z,78.60
2023-02-28T18:49:26.652Z,79.30
2023-02-28T18:51:53.628Z,80.30
2023-02-28T18:54:20.513Z,79.90
2023-02-28T18:56:47.278Z,80.90
2023-02-28T18:59:14.050Z,80.90
2023-02-28T19:01:40.985Z,81.70
2023-02-28T19:04:08.201Z,80.50
2023-02-28T19:06:38.041Z,82.10
2023-02-28T19:09:05.401Z,83.10
2023-02-28T19:11:32.705Z,83.50
2023-02-28T19:13:59.481Z,83.00
2023-02-28T19:16:30.854Z,83.40
2023-02-28T19:18:57.887Z,83.70
2023-02-28T19:21:25.104Z,84.60
2023-02-28T19:23:51.861Z,84.30
2023-02-28T19:26:21.844Z,83.60
2023-02-28T19:28:49.027Z,83.80
2023-02-28T19:31:26.726Z,84.50
2023-02-28T19:33:53.992Z,84.20
2023-02-28T19:36:22.132Z,85.00
2023-02-28T19:38:49.350Z,84.80
2023-02-28T19:41:17.140Z,84.80
2023-02-28T19:43:44.261Z,84.10
2023-02-28T19:46:12.485Z,84.60
2023-02-28T19:48:40.087Z,84.90
2023-02-28T19:51:09.813Z,85.40
2023-02-28T19:53:38.336Z,85.20
2023-02-28T19:56:05.798Z,84.70
2023-02-28T19:58:33.957Z,84.70
2023-02-28T20:01:12.200Z,85.10
2023-02-28T20:03:39.074Z,84.90
2023-02-28T20:06:09.940Z,85.00
2023-02-28T20:08:37.927Z,85.60
2023-02-28T20:11:13.533Z,85.70
2023-02-28T20:13:40.471Z,86.30
2023-02-28T20:16:09.888Z,86.20
2023-02-28T20:18:37.886Z,86.60
2023-02-28T20:21:05.090Z,87.80
2023-02-28T20:23:32.007Z,88.10
2023-02-28T20:26:02.246Z,88.00
2023-02-28T20:28:29.280Z,87.50
2023-02-28T20:30:56.608Z,86.90
2023-02-28T20:33:23.999Z,87.30
2023-02-28T20:35:58.900Z,87.60
2023-02-28T20:38:25.696Z,88.30
2023-02-28T20:40:56.386Z,88.10
2023-02-28T20:43:24.055Z,87.90
2023-02-28T20:45:57.156Z,88.00
2023-02-28T20:48:25.568Z,88.00
2023-02-28T20:50:54.361Z,87.80
2023-02-28T20:53:21.903Z,88.30
2023-02-28T20:55:55.758Z,88.40
2023-02-28T20:58:24.240Z,88.50
2023-02-28T21:00:51.259Z,89.30
2023-02-28T21:03:18.041Z,89.30
2023-02-28T21:05:44.817Z,88.90
2023-02-28T21:08:11.663Z,89.00
2023-02-28T21:10:39.330Z,88.90
2023-02-28T21:13:06.073Z,88.60
2023-02-28T21:15:36.593Z,88.70
2023-02-28T21:18:03.574Z,88.50
2023-02-28T21:20:30.437Z,89.20
2023-02-28T21:22:57.222Z,89.30
2023-02-28T21:25:24.079Z,88.70
2023-02-28T21:27:50.984Z,89.40
2023-02-28T21:30:17.817Z,89.60
2023-02-28T21:32:44.574Z,89.70
2023-02-28T21:35:11.420Z,89.70
2023-02-28T21:37:38.778Z,90.10
2023-02-28T21:40:06.754Z,89.90
2023-02-28T21:42:33.542Z,89.60
2023-02-28T21:45:01.577Z,90.20
2023-02-28T21:47:31.558Z,89.90
2023-02-28T21:49:58.494Z,90.10
2023-02-28T21:52:25.358Z,90.30
2023-02-28T21:54:52.242Z,90.70
2023-02-28T21:57:19.166Z,90.70
2023-02-28T21:59:46.027Z,90.80
2023-02-28T22:02:12.936Z,90.30
2023-02-28T22:04:39.714Z,90.80
2023-02-28T22:07:06.470Z,91.00
2023-02-28T22:09:33.338Z,91.30
2023-02-28T22:12:20.720Z,91.50
2023-02-28T22:14:47.917Z,91.80
2023-02-28T22:17:14.667Z,91.40
2023-02-28T22:19:41.565Z,91.10
2023-02-28T22:22:08.432Z,91.60
2023-02-28T22:24:35.227Z,91.90
2023-02-28T22:27:01.993Z,92.30
2023-02-28T22:29:28.937Z,92.20
2023-02-28T22:31:55.897Z,93.40
2023-02-28T22:34:22.792Z,92.70
2023-02-28T22:36:49.616Z,92.30
2023-02-28T22:39:16.540Z,92.10
2023-02-28T22:41:43.550Z,92.20
2023-02-28T22:44:11.308Z,91.80
2023-02-28T22:46:38.432Z,91.90
2023-02-28T22:49:06.021Z,92.30
2023-02-28T22:51:33.545Z,91.80
2023-02-28T22:54:00.476Z,91.90
2023-02-28T22:56:30.014Z,92.40
2023-02-28T22:58:59.038Z,92.10
2023-02-28T23:01:28.420Z,92.10
2023-02-28T23:03:55.695Z,92.00
2023-02-28T23:06:25.845Z,92.50
2023-02-28T23:09:35.284Z,92.90
2023-02-28T23:12:02.181Z,92.20
2023-02-28T23:14:29.040Z,92.90
2023-02-28T23:16:55.949Z,92.60
2023-02-28T23:19:31.298Z,93.00
2023-02-28T23:22:00.279Z,92.60
2023-02-28T23:24:30.289Z,92.90
2023-02-28T23:27:00.195Z,93.10
2023-02-28T23:29:28.019Z,93.30
2023-02-28T23:31:55.450Z,93.10
2023-02-28T23:34:26.614Z,93.60
2023-02-28T23:36:55.275Z,93.80
2023-02-28T23:39:23.087Z,93.40
2023-02-28T23:41:50.498Z,93.90
2023-02-28T23:44:17.697Z,94.10
2023-02-28T23:46:46.992Z,93.60
2023-02-28T23:49:15.363Z,94.20
2023-02-28T23:51:42.471Z,94.20
2023-02-28T23:54:09.914Z,94.00
2023-02-28T23:56:36.768Z,93.80
2023-02-28T23:59:04.204Z,94.30
